Time;durP1;ratioP1;P1;durP2;ratioP2;P2;SDS_P1;SDS_P2;PMS_P1;PMS_P2;Temp;Humidity;BMP_temperature;BMP_pressure;BME280_temperature;BME280_humidity;BME280_pressure;Samples;Min_cycle;Max_cycle;Signal;HPM_P1;HPM_P2
2022/07/24 00:02:31;;;;;;;1.65;0.98;;;;;;;15.35;100.00;101797.09;6249533;28;20046;-75
2022/07/24 00:05:32;;;;;;;1.23;1.00;;;;;;;15.32;100.00;101792.00;6249445;28;20049;-75
2022/07/24 00:08:34;;;;;;;1.13;1.02;;;;;;;15.29;100.00;101787.72;6249424;28;20046;-76
2022/07/24 00:11:36;;;;;;;1.15;0.80;;;;;;;15.28;100.00;101793.97;6249354;28;20057;-75
2022/07/24 00:14:38;;;;;;;1.13;0.80;;;;;;;15.19;100.00;101782.09;6242102;28;20046;-75
2022/07/24 00:17:40;;;;;;;1.42;0.88;;;;;;;15.12;100.00;101775.41;6200479;28;20046;-75
2022/07/24 00:20:41;;;;;;;1.52;1.10;;;;;;;15.09;100.00;101780.91;6200337;28;20065;-75
2022/07/24 00:23:42;;;;;;;1.08;0.95;;;;;;;15.11;100.00;101784.31;6200086;28;20070;-75
2022/07/24 00:26:44;;;;;;;2.03;1.17;;;;;;;15.11;100.00;101784.31;6200452;28;20646;-75
2022/07/24 00:29:47;;;;;;;2.28;1.13;;;;;;;15.04;100.00;101788.25;6199895;28;20057;-75
2022/07/24 00:32:48;;;;;;;1.08;0.93;;;;;;;14.97;100.00;101781.56;6201437;28;20495;-75
2022/07/24 00:35:50;;;;;;;1.70;0.95;;;;;;;14.94;100.00;101779.97;6199770;28;20054;-75
2022/07/24 00:38:51;;;;;;;1.90;1.42;;;;;;;14.88;100.00;101777.63;6200094;28;20046;-75
2022/07/24 00:41:53;;;;;;;1.63;1.30;;;;;;;14.85;100.00;101777.81;6199685;28;20046;-76
2022/07/24 00:44:55;;;;;;;0.93;0.75;;;;;;;14.85;100.00;101776.94;6200439;28;20108;-75
2022/07/24 00:47:57;;;;;;;1.45;1.10;;;;;;;14.84;100.00;101773.44;6224115;28;20695;-75
2022/07/24 00:50:58;;;;;;;3.58;1.08;;;;;;;14.86;100.00;101778.69;6224023;28;20548;-75
2022/07/24 00:54:00;;;;;;;1.65;1.02;;;;;;;14.84;100.00;101780.53;6223795;28;20056;-75
2022/07/24 00:57:01;;;;;;;1.55;1.08;;;;;;;14.82;100.00;101782.44;6223605;28;20046;-75
2022/07/24 01:00:06;;;;;;;1.08;1.00;;;;;;;14.80;100.00;101774.56;6223700;28;20053;-76
2022/07/24 01:03:08;;;;;;;1.00;0.93;;;;;;;14.83;100.00;101770.91;6223623;28;20084;-75
2022/07/24 01:06:10;;;;;;;4.13;1.30;;;;;;;14.79;100.00;101767.56;6223504;28;20049;-75
2022/07/24 01:09:12;;;;;;;2.05;1.40;;;;;;;14.75;100.00;101765.16;6223462;28;20050;-75
2022/07/24 01:12:13;;;;;;;1.27;1.17;;;;;;;14.71;100.00;101767.97;6223042;28;20038;-75
2022/07/24 01:15:16;;;;;;;1.10;0.98;;;;;;;14.67;100.00;101762.91;6235670;28;20049;-75
2022/07/24 01:18:17;;;;;;;3.80;0.93;;;;;;;14.62;100.00;101765.81;6243057;28;20049;-78
2022/07/24 01:21:20;;;;;;;0.80;0.80;;;;;;;14.60;100.00;101767.72;6235185;28;20049;-75
2022/07/24 01:24:22;;;;;;;1.38;1.13;;;;;;;14.51;100.00;101764.69;6242769;28;20045;-75
2022/07/24 01:27:24;;;;;;;0.80;0.80;;;;;;;14.51;100.00;101764.69;6237727;28;20049;-75
2022/07/24 01:30:26;;;;;;;1.20;1.13;;;;;;;14.47;100.00;101772.75;6237197;28;20045;-75
2022/07/24 01:33:27;;;;;;;6.72;1.40;;;;;;;14.44;100.00;101764.13;6247709;28;20053;-75
2022/07/24 01:36:30;;;;;;;1.00;0.90;;;;;;;14.44;100.00;101761.47;6247216;28;20144;-75
2022/07/24 01:39:31;;;;;;;1.38;1.00;;;;;;;14.42;100.00;101756.28;6247512;28;20061;-75
2022/07/24 01:42:33;;;;;;;1.38;1.10;;;;;;;14.38;100.00;101757.38;6241959;28;20045;-75
2022/07/24 01:45:34;;;;;;;2.85;1.00;;;;;;;14.35;100.00;101756.69;6230882;28;20053;-75
2022/07/24 01:48:36;;;;;;;1.23;1.13;;;;;;;14.35;100.00;101760.22;6200859;28;20073;-78
2022/07/24 01:51:38;;;;;;;4.22;1.20;;;;;;;14.28;100.00;101753.53;6198633;28;20429;-75
2022/07/24 01:54:40;;;;;;;2.00;1.45;;;;;;;14.25;100.00;101748.38;6198041;28;20054;-75
2022/07/24 01:57:41;;;;;;;1.58;1.15;;;;;;;14.32;100.00;101754.22;6198418;28;20046;-75
2022/07/24 02:00:42;;;;;;;1.20;1.10;;;;;;;14.27;100.00;101749.19;6197900;28;20057;-75
2022/07/24 02:03:45;;;;;;;1.50;1.35;;;;;;;14.25;100.00;101748.38;6209857;28;20069;-76
2022/07/24 02:06:48;;;;;;;2.15;1.30;;;;;;;14.23;100.00;101754.72;6222432;28;20060;-77
2022/07/24 02:09:49;;;;;;;1.83;1.33;;;;;;;14.21;100.00;101752.13;6222279;28;20050;-77
2022/07/24 02:12:51;;;;;;;1.42;1.20;;;;;;;14.19;100.00;101757.50;6222053;28;20060;-77
2022/07/24 02:15:52;;;;;;;1.42;1.00;;;;;;;14.19;100.00;101754.84;6220888;28;20050;-77
2022/07/24 02:18:53;;;;;;;2.15;1.13;;;;;;;14.18;100.00;101757.59;6222152;28;20410;-78
2022/07/24 02:21:56;;;;;;;3.60;1.40;;;;;;;14.14;100.00;101750.75;6222006;28;20052;-78
2022/07/24 02:24:57;;;;;;;3.45;1.30;;;;;;;14.14;100.00;101748.97;6222268;28;20050;-77
2022/07/24 02:27:59;;;;;;;1.98;1.40;;;;;;;14.15;100.00;101747.16;6220337;28;20077;-77
2022/07/24 02:31:00;;;;;;;1.65;1.05;;;;;;;14.14;100.00;101750.75;6222146;28;20048;-77
2022/07/24 02:34:01;;;;;;;2.55;0.95;;;;;;;14.11;100.00;101745.63;6221992;28;20074;-77
2022/07/24 02:37:04;;;;;;;1.48;1.00;;;;;;;14.12;100.00;101750.81;6222116;28;20049;-77
2022/07/24 02:40:07;;;;;;;1.35;1.00;;;;;;;14.14;100.00;101742.81;6222016;28;20521;-77
2022/07/24 02:43:08;;;;;;;2.03;1.20;;;;;;;14.10;100.00;101747.41;6222155;28;20042;-77
2022/07/24 02:46:10;;;;;;;1.73;1.10;;;;;;;14.04;100.00;101746.88;6220242;28;20522;-77
2022/07/24 02:49:11;;;;;;;1.58;1.08;;;;;;;13.99;100.00;101749.75;6221691;28;20053;-77
2022/07/24 02:52:14;;;;;;;1.77;1.20;;;;;;;13.93;100.00;101750.06;6221819;28;20560;-77
2022/07/24 02:55:16;;;;;;;2.03;1.13;;;;;;;13.89;100.00;101752.00;6221967;28;20061;-77
2022/07/24 02:58:18;;;;;;;1.30;1.20;;;;;;;13.86;100.00;101746.03;6221842;28;20049;-77
2022/07/24 03:01:20;;;;;;;2.10;1.30;;;;;;;13.82;100.00;101747.97;6222151;28;20049;-77
2022/07/24 03:04:21;;;;;;;2.20;1.15;;;;;;;13.78;100.00;101750.84;6221694;28;20493;-78
2022/07/24 03:07:24;;;;;;;2.17;1.30;;;;;;;13.75;100.00;101748.34;6221780;28;20054;-77
2022/07/24 03:10:25;;;;;;;2.58;1.40;;;;;;;13.76;100.00;101748.25;6221683;28;20053;-77
2022/07/24 03:13:26;;;;;;;1.92;1.30;;;;;;;13.70;100.00;101752.09;6216979;28;20382;-77
2022/07/24 03:16:28;;;;;;;2.55;1.50;;;;;;;13.68;100.00;101746.03;6234666;28;20045;-77
2022/07/24 03:19:29;;;;;;;1.88;1.17;;;;;;;13.66;100.00;101750.53;6238387;28;20049;-77
2022/07/24 03:22:32;;;;;;;3.25;1.20;;;;;;;13.68;100.00;101743.38;6237805;28;20057;-77
2022/07/24 03:25:33;;;;;;;2.70;0.95;;;;;;;13.68;100.00;101740.75;6241290;28;20056;-77
2022/07/24 03:28:35;;;;;;;3.53;1.40;;;;;;;13.68;100.00;101738.09;6237819;28;20056;-78
2022/07/24 03:31:36;;;;;;;1.48;1.20;;;;;;;13.71;100.00;101739.72;6245756;28;20064;-77
2022/07/24 03:34:38;;;;;;;3.15;1.42;;;;;;;13.74;100.00;101729.00;6247360;28;20049;-77
2022/07/24 03:37:40;;;;;;;2.22;1.20;;;;;;;13.76;100.00;101737.69;6250482;28;20528;-77
2022/07/24 03:40:42;;;;;;;2.80;0.98;;;;;;;13.76;100.00;101739.50;6246967;28;20057;-77
2022/07/24 03:43:43;;;;;;;1.50;1.20;;;;;;;13.75;100.00;101738.63;6245727;28;20048;-77
2022/07/24 03:46:44;;;;;;;1.95;1.45;;;;;;;13.76;100.00;101742.13;6250160;28;20049;-77
2022/07/24 03:49:46;;;;;;;1.42;1.08;;;;;;;13.74;100.00;101751.94;6250242;28;20056;-77
2022/07/24 03:52:48;;;;;;;2.35;1.30;;;;;;;13.77;100.00;101749.16;6250101;28;20045;-77
2022/07/24 03:55:50;;;;;;;1.23;1.05;;;;;;;13.78;100.00;101743.78;6250145;28;20056;-77
2022/07/24 03:58:51;;;;;;;1.58;1.15;;;;;;;13.80;100.00;101751.63;6249971;28;20049;-78
2022/07/24 04:01:52;;;;;;;1.35;1.15;;;;;;;13.78;100.00;101753.50;6249433;28;20050;-77
2022/07/24 04:04:54;;;;;;;2.13;1.20;;;;;;;13.81;100.00;101746.28;6249650;28;20413;-77
2022/07/24 04:07:56;;;;;;;2.20;1.30;;;;;;;13.85;100.00;101747.84;6249558;28;20421;-77
2022/07/24 04:10:58;;;;;;;3.25;1.02;;;;;;;13.85;100.00;101749.59;6249647;28;20060;-77
2022/07/24 04:13:59;;;;;;;2.25;1.55;;;;;;;13.89;100.00;101756.44;6209833;28;20050;-77
2022/07/24 04:17:01;;;;;;;1.48;1.00;;;;;;;13.92;100.00;101751.84;6200779;28;20050;-77
2022/07/24 04:20:02;;;;;;;2.30;1.48;;;;;;;13.95;100.00;101750.84;6200321;28;20074;-77
2022/07/24 04:23:05;;;;;;;2.05;1.58;;;;;;;13.96;100.00;101748.13;6200690;28;20050;-77
2022/07/24 04:26:06;;;;;;;2.53;1.55;;;;;;;14.02;100.00;101746.09;6200292;28;20054;-77
2022/07/24 04:29:08;;;;;;;1.63;1.13;;;;;;;14.04;100.00;101746.88;6200570;28;20057;-77
2022/07/24 04:32:09;;;;;;;1.88;1.60;;;;;;;14.09;100.00;101739.56;6200122;28;20058;-77
2022/07/24 04:35:10;;;;;;;1.30;1.20;;;;;;;14.15;100.00;101731.31;6200151;28;20505;-78
2022/07/24 04:38:13;;;;;;;2.47;1.30;;;;;;;14.21;100.00;101730.97;6200325;28;20490;-77
2022/07/24 04:41:17;;;;;;;2.60;1.60;;;;;;;14.26;100.00;101730.72;6200943;28;20046;-77
2022/07/24 04:44:18;;;;;;;1.40;1.20;;;;;;;14.26;100.00;101725.44;6199894;28;20101;-77
2022/07/24 04:47:19;;;;;;;1.23;1.13;;;;;;;14.30;100.00;101730.47;6199733;28;20061;-77
2022/07/24 04:50:21;;;;;;;4.10;1.27;;;;;;;14.36;100.00;101726.69;6200141;28;20050;-77
2022/07/24 04:53:24;;;;;;;1.23;1.00;;;;;;;14.43;100.00;101722.75;6199861;28;20061;-77
2022/07/24 04:56:30;;;;;;;1.98;1.30;;;;;;;14.49;100.00;101735.69;6200023;28;20046;-77
2022/07/24 04:59:31;;;;;;;1.65;1.42;;;;;;;14.56;100.00;101730.91;6199580;28;20160;-77
2022/07/24 05:02:32;;;;;;;3.20;1.30;;;;;;;14.63;100.00;101729.66;6199331;28;20429;-78
2022/07/24 05:05:34;;;;;;;1.30;1.20;;;;;;;14.70;100.00;101731.00;6199317;28;20058;-77
2022/07/24 05:08:36;;;;;;;1.52;1.13;;;;;;;14.75;100.00;101728.97;6199723;28;20050;-77
2022/07/24 05:11:38;;;;;;;0.80;0.70;;;;;;;14.84;100.00;101736.41;6200748;28;20046;-77
2022/07/24 05:14:39;;;;;;;1.10;1.00;;;;;;;14.92;100.00;101734.19;6226911;28;20042;-77
2022/07/24 05:17:40;;;;;;;2.08;1.30;;;;;;;14.99;100.00;101724.13;6224060;28;20049;-78
2022/07/24 05:20:42;;;;;;;2.25;1.23;;;;;;;15.06;100.00;101729.91;6223642;28;20072;-77
2022/07/24 05:23:45;;;;;;;4.00;1.95;;;;;;;15.13;100.00;101728.63;6239637;28;20041;-77
2022/07/24 05:26:46;;;;;;;5.72;3.47;;;;;;;15.23;100.00;101729.81;6247948;28;20563;-77
2022/07/24 05:29:47;;;;;;;4.50;2.63;;;;;;;15.31;100.00;101724.94;6247709;28;20060;-77
2022/07/24 05:32:49;;;;;;;2.45;1.88;;;;;;;15.39;100.00;101732.41;6242229;28;20045;-77
2022/07/24 05:35:50;;;;;;;2.30;1.45;;;;;;;15.43;100.00;101720.72;6241136;28;20045;-77
2022/07/24 05:38:52;;;;;;;1.38;1.10;;;;;;;15.50;100.00;101721.22;6247304;28;20405;-77
2022/07/24 05:41:54;;;;;;;1.52;1.20;;;;;;;15.56;100.00;101708.47;6203208;28;20054;-77
2022/07/24 05:44:55;;;;;;;1.83;1.30;;;;;;;15.62;100.00;101716.03;6198712;28;20057;-77
2022/07/24 05:47:56;;;;;;;1.13;1.00;;;;;;;15.66;100.00;101712.28;6198306;28;20058;-75
2022/07/24 05:50:58;;;;;;;1.15;1.05;;;;;;;15.76;100.00;101717.03;6206958;28;20417;-78
2022/07/24 05:54:02;;;;;;;1.40;0.95;;;;;;;15.83;100.00;101721.91;6222445;28;20056;-77
2022/07/24 05:57:04;;;;;;;5.30;0.95;;;;;;;15.91;100.00;101710.84;6222693;28;20053;-78
2022/07/24 06:00:06;;;;;;;2.33;1.27;;;;;;;16.00;100.00;101707.63;6234095;28;20042;-77
2022/07/24 06:03:08;;;;;;;2.83;1.25;;;;;;;16.08;100.00;101705.38;6219724;28;20482;-77
2022/07/24 06:06:09;;;;;;;2.03;1.00;;;;;;;16.15;100.00;101695.22;6200872;28;20516;-77
2022/07/24 06:09:12;;;;;;;12.57;5.82;;;;;;;16.21;100.00;101687.78;6203686;28;20050;-75
2022/07/24 06:12:13;;;;;;;4.40;2.35;;;;;;;16.29;100.00;101678.47;6209410;28;20505;-75
2022/07/24 06:15:14;;;;;;;2.65;1.55;;;;;;;16.34;100.00;101677.22;6207677;28;20053;-75
2022/07/24 06:18:16;;;;;;;2.33;1.40;;;;;;;16.39;100.00;101683.09;6209776;28;20100;-74
2022/07/24 06:21:17;;;;;;;1.67;1.10;;;;;;;16.43;100.00;101676.66;6207195;28;20422;-74
2022/07/24 06:24:20;;;;;;;1.02;0.90;;;;;;;16.47;100.00;101680.81;6209743;28;20536;-74
2022/07/24 06:27:21;;;;;;;0.90;0.85;;;;;;;16.55;100.00;101671.53;6207568;28;20054;-75
2022/07/24 06:30:24;;;;;;;0.70;0.70;;;;;;;16.59;100.00;101679.19;6209185;28;20049;-74
2022/07/24 06:33:25;;;;;;;1.48;1.23;;;;;;;16.62;100.00;101684.31;6208271;28;20043;-75
2022/07/24 06:36:27;;;;;;;0.93;0.90;;;;;;;16.67;100.00;101687.53;6208562;28;20054;-74
2022/07/24 06:39:30;;;;;;;1.08;0.90;;;;;;;16.80;100.00;101676.97;6209139;28;20045;-75
2022/07/24 06:42:31;;;;;;;2.55;1.20;;;;;;;16.90;100.00;101679.91;6197540;28;20054;-74
2022/07/24 06:45:32;;;;;;;1.52;1.10;;;;;;;17.04;100.00;101679.88;6197548;28;20057;-75
2022/07/24 06:48:34;;;;;;;1.60;1.00;;;;;;;17.17;100.00;101683.41;6197839;28;20054;-75
2022/07/24 06:51:35;;;;;;;1.08;0.98;;;;;;;17.22;100.00;101673.34;6197990;28;20057;-74
2022/07/24 06:54:38;;;;;;;0.80;0.80;;;;;;;17.27;100.00;101674.84;6197588;28;20053;-75
2022/07/24 06:57:39;;;;;;;2.05;0.77;;;;;;;17.34;100.00;101679.63;6197775;28;20061;-75
2022/07/24 07:00:41;;;;;;;1.50;1.00;;;;;;;17.50;100.00;101679.47;6197674;28;20081;-75
2022/07/24 07:03:42;;;;;;;1.17;1.02;;;;;;;17.62;100.00;101675.97;6197400;28;20402;-75
2022/07/24 07:06:44;;;;;;;1.80;0.98;;;;;;;17.70;100.00;101673.63;6197428;28;20145;-76
2022/07/24 07:09:46;;;;;;;1.85;0.70;;;;;;;17.80;100.00;101675.69;6222354;28;20053;-75
2022/07/24 07:12:48;;;;;;;1.42;0.90;;;;;;;17.93;100.00;101668.56;6220791;28;20050;-75
2022/07/24 07:15:49;;;;;;;4.95;3.28;;;;;;;17.99;100.00;101665.50;6237831;28;20053;-75
2022/07/24 07:18:50;;;;;;;1.92;1.50;;;;;;;18.04;100.00;101663.34;6242857;28;20465;-75
2022/07/24 07:21:52;;;;;;;1.77;1.20;;;;;;;18.10;100.00;101670.03;6242309;28;20049;-75
2022/07/24 07:24:54;;;;;;;1.00;0.90;;;;;;;18.16;100.00;101665.13;6244475;28;20057;-74
2022/07/24 07:27:56;;;;;;;3.10;0.93;;;;;;;18.26;100.00;101668.03;6242871;28;20056;-75
2022/07/24 07:30:57;;;;;;;4.38;0.98;;;;;;;18.39;98.50;101659.97;6236403;28;20050;-74
2022/07/24 07:33:58;;;;;;;1.70;0.95;;;;;;;18.49;98.35;101655.72;6250334;28;20057;-74
2022/07/24 07:37:00;;;;;;;1.00;0.80;;;;;;;18.58;97.59;101652.41;6236375;28;20050;-74
2022/07/24 07:40:03;;;;;;;1.58;0.95;;;;;;;18.66;97.07;101659.81;6220626;28;20053;-74
2022/07/24 07:43:05;;;;;;;1.65;1.02;;;;;;;18.78;94.38;101666.94;6245335;28;20045;-74
2022/07/24 07:46:07;;;;;;;1.75;1.15;;;;;;;18.92;93.03;101660.59;6235986;28;20049;-74
2022/07/24 07:49:08;;;;;;;1.63;0.70;;;;;;;19.07;92.79;101647.94;6225632;28;20049;-74
2022/07/24 07:52:09;;;;;;;2.72;1.02;;;;;;;19.22;90.67;101650.31;6225386;28;20529;-74
2022/07/24 07:55:12;;;;;;;1.65;1.10;;;;;;;19.37;88.26;101648.31;6224222;28;20061;-74
2022/07/24 07:58:14;;;;;;;1.00;0.90;;;;;;;19.57;85.66;101656.59;6225081;28;20057;-74
2022/07/24 08:01:15;;;;;;;1.52;0.90;;;;;;;19.66;85.29;101650.56;6225044;28;20521;-75
2022/07/24 08:04:16;;;;;;;1.27;0.88;;;;;;;19.85;84.31;101658.88;6225008;28;20061;-75
2022/07/24 08:07:18;;;;;;;1.38;0.95;;;;;;;19.95;83.53;101653.66;6208762;28;20517;-74
2022/07/24 08:10:20;;;;;;;1.73;1.10;;;;;;;20.02;84.02;101645.03;6200793;28;20057;-75
2022/07/24 08:13:22;;;;;;;1.35;0.90;;;;;;;20.14;82.98;101653.06;6200914;28;20490;-74
2022/07/24 08:16:24;;;;;;;2.33;1.27;;;;;;;20.21;83.35;101651.59;6200812;28;20050;-75
2022/07/24 08:19:25;;;;;;;3.42;1.40;;;;;;;20.34;82.11;101652.31;6200223;28;20054;-74
2022/07/24 08:22:27;;;;;;;1.13;1.00;;;;;;;20.42;82.29;101639.19;6200425;28;20050;-75
2022/07/24 08:25:29;;;;;;;1.67;1.20;;;;;;;20.46;82.51;101653.16;6200719;28;20050;-75
2022/07/24 08:28:31;;;;;;;1.17;1.10;;;;;;;20.60;79.38;101646.72;6200566;28;20051;-74
2022/07/24 08:31:32;;;;;;;4.32;1.27;;;;;;;20.72;78.03;101627.88;6220951;28;20420;-74
2022/07/24 08:34:33;;;;;;;1.63;1.27;;;;;;;20.80;77.24;101623.72;6223006;28;20053;-75
2022/07/24 08:37:36;;;;;;;2.10;1.42;;;;;;;20.80;77.70;101618.38;6224641;28;20061;-75
2022/07/24 08:40:40;;;;;;;2.65;1.13;;;;;;;20.85;78.12;101618.81;6224252;28;20524;-74
2022/07/24 08:43:42;;;;;;;2.13;1.40;;;;;;;21.00;75.57;101621.09;6224396;28;20500;-74
2022/07/24 08:46:43;;;;;;;1.95;1.23;;;;;;;21.18;75.39;101623.19;6222246;28;20072;-75
2022/07/24 08:49:49;;;;;;;2.10;1.35;;;;;;;21.30;74.23;101622.16;6234724;28;20041;-74
2022/07/24 08:52:51;;;;;;;4.18;1.77;;;;;;;21.42;72.49;101628.31;6242735;28;20046;-75
2022/07/24 08:55:54;;;;;;;2.38;1.35;;;;;;;21.50;72.71;101610.66;6224020;28;20065;-75
2022/07/24 08:58:55;;;;;;;3.20;2.10;;;;;;;21.60;69.06;101618.72;6223956;28;20056;-75
2022/07/24 09:01:57;;;;;;;2.60;1.73;;;;;;;21.73;67.53;101618.50;6225653;28;20050;-75
2022/07/24 09:05:02;;;;;;;2.75;1.50;;;;;;;21.79;67.25;101617.97;6213272;28;20498;-75
2022/07/24 09:08:08;;;;;;;2.65;1.88;;;;;;;21.95;66.98;101612.16;6199299;28;20521;-75
2022/07/24 09:11:11;;;;;;;2.38;1.63;;;;;;;21.97;65.63;101611.00;6219762;28;20500;-76
2022/07/24 09:14:30;;;;;;;3.08;1.70;;;;;;;22.04;66.77;101609.50;6228230;28;20489;-76
2022/07/24 09:17:33;;;;;;;;;;;;;;;22.20;64.53;101608.16;6237012;28;20049;-75
2022/07/24 09:20:38;;;;;;;3.53;2.20;;;;;;;22.25;63.84;101614.78;6221214;28;19921;-76
2022/07/24 09:23:40;;;;;;;1.60;1.38;;;;;;;22.45;63.35;101618.38;6223972;28;20046;-76
2022/07/24 09:26:48;;;;;;;3.65;1.80;;;;;;;22.64;63.96;101624.78;6231092;28;20049;-77
2022/07/24 09:29:49;;;;;;;3.03;2.15;;;;;;;22.70;62.77;101626.88;6224552;28;20057;-77
2022/07/24 09:32:55;;;;;;;3.83;2.30;;;;;;;22.76;61.94;101618.31;6238862;28;20041;-77
2022/07/24 09:35:57;;;;;;;2.13;1.70;;;;;;;22.73;61.39;101626.63;6220080;28;20050;-77
2022/07/24 09:38:59;;;;;;;3.03;2.17;;;;;;;22.77;62.14;101625.34;6198712;28;20465;-75
2022/07/24 09:42:03;;;;;;;2.75;1.83;;;;;;;22.91;61.37;101616.94;6198508;28;20046;-75
2022/07/24 09:45:07;;;;;;;3.55;2.13;;;;;;;22.97;60.75;101607.47;6198266;28;20065;-76
2022/07/24 09:48:11;;;;;;;2.10;1.80;;;;;;;23.07;60.82;101608.28;6198294;28;20054;-75
2022/07/24 09:51:15;;;;;;;5.82;1.83;;;;;;;23.20;61.06;101613.38;6226769;28;20762;-76
2022/07/24 09:54:29;;;;;;;2.75;2.00;;;;;;;23.34;61.92;101612.94;6225700;28;20057;-75
2022/07/24 09:57:33;;;;;;;3.03;1.80;;;;;;;23.31;62.05;101607.88;6222425;28;20057;-75
2022/07/24 10:00:35;;;;;;;2.72;1.98;;;;;;;23.47;60.23;101602.75;6222695;28;20469;-76
2022/07/24 10:03:39;;;;;;;2.72;1.75;;;;;;;23.50;60.40;101597.09;6231234;28;20041;-75
2022/07/24 10:06:43;;;;;;;3.40;1.80;;;;;;;23.58;61.47;101591.00;6217453;28;20141;-76
2022/07/24 10:09:47;;;;;;;2.50;1.67;;;;;;;23.69;59.56;101582.78;6233090;28;20407;-75
2022/07/24 10:12:50;;;;;;;3.60;2.20;;;;;;;23.72;60.24;101587.03;6227573;28;20069;-76
2022/07/24 10:15:55;;;;;;;2.08;1.65;;;;;;;23.77;60.27;101584.75;6238379;28;20069;-75
2022/07/24 10:19:00;;;;;;;3.65;1.88;;;;;;;23.95;58.53;101588.34;6246889;28;20127;-77
2022/07/24 10:22:09;;;;;;;2.50;2.05;;;;;;;24.10;58.06;101587.84;6240140;28;20053;-77
2022/07/24 10:25:19;;;;;;;3.35;2.00;;;;;;;24.21;57.13;101593.00;6222230;28;20046;-77
2022/07/24 10:28:35;;;;;;;2.72;1.92;;;;;;;24.22;57.22;101578.59;6222203;28;20049;-76
2022/07/24 10:31:38;;;;;;;3.05;2.47;;;;;;;24.27;56.76;101579.00;6219808;28;20437;-76
2022/07/24 10:34:51;;;;;;;3.10;2.00;;;;;;;24.32;57.11;101573.16;6197745;28;20065;-76
2022/07/24 10:37:59;;;;;;;6.50;2.75;;;;;;;24.38;56.74;101565.34;6197747;28;20121;-76
2022/07/24 10:41:08;;;;;;;3.47;2.60;;;;;;;24.49;57.39;101559.78;6197938;28;20057;-75
2022/07/24 10:44:17;;;;;;;3.55;2.47;;;;;;;24.71;56.06;101566.56;6200243;28;20050;-76
2022/07/24 10:47:26;;;;;;;2.93;2.27;;;;;;;24.77;56.87;101559.69;6202901;28;20061;-75
2022/07/24 10:51:01;;;;;;;3.58;2.17;;;;;;;24.95;55.06;101557.84;6202730;28;20297;-77
2022/07/24 10:54:04;;;;;;;3.60;2.25;;;;;;;25.02;55.11;101564.25;6220809;28;20671;-75
2022/07/24 10:57:05;;;;;;;3.75;2.25;;;;;;;25.06;54.58;101560.25;6208923;28;20619;-75
2022/07/24 11:00:25;;;;;;;2.58;1.80;;;;;;;24.90;55.13;101556.63;6221757;28;20132;-75
2022/07/24 11:03:32;;;;;;;4.55;2.10;;;;;;;24.70;56.53;101551.38;6220201;28;20037;-76
2022/07/24 11:06:42;;;;;;;3.53;2.42;;;;;;;24.55;56.59;101548.41;6221091;28;20045;-75
2022/07/24 11:10:01;;;;;;;4.25;2.30;;;;;;;24.86;55.26;101539.94;6232956;28;20041;-76
2022/07/24 11:13:02;;;;;;;3.80;2.08;;;;;;;25.38;53.01;101548.06;6227020;28;20100;-76
2022/07/24 11:16:21;;;;;;;5.85;2.47;;;;;;;25.38;53.96;101541.84;6226392;28;20046;-76
2022/07/24 11:19:31;;;;;;;3.50;2.05;;;;;;;25.33;54.49;101534.25;6226429;28;20050;-76
2022/07/24 11:22:41;;;;;;;5.15;2.10;;;;;;;25.80;52.98;101533.88;6226306;28;20088;-75
2022/07/24 11:25:43;;;;;;;4.22;2.10;;;;;;;26.15;52.95;101526.56;6226071;28;20053;-75
2022/07/24 11:29:12;;;;;;;2.38;1.73;;;;;;;26.55;50.56;101528.50;6226230;28;20049;-76
2022/07/24 11:32:17;;;;;;;2.45;1.90;;;;;;;26.58;49.48;101513.88;6231704;28;20508;-76
2022/07/24 11:35:28;;;;;;;3.25;2.17;;;;;;;26.26;51.49;101512.78;6236752;28;20131;-76
2022/07/24 11:38:29;;;;;;;4.95;1.58;;;;;;;26.47;52.48;101517.72;6225883;28;20045;-76
2022/07/24 11:41:44;;;;;;;3.33;2.15;;;;;;;27.03;50.43;101511.47;6225133;28;20053;-76
2022/07/24 11:44:48;;;;;;;1.95;1.60;;;;;;;27.39;47.83;101515.63;6225879;28;20133;-76
2022/07/24 11:47:54;;;;;;;3.10;1.88;;;;;;;27.44;46.88;101507.88;6225560;28;20057;-76
2022/07/24 11:51:04;;;;;;;2.17;1.73;;;;;;;26.83;47.11;101504.75;6225731;28;20050;-76
2022/07/24 11:54:05;;;;;;;3.38;2.10;;;;;;;26.73;47.50;101490.59;6225410;28;20046;-76
2022/07/24 11:57:17;;;;;;;3.30;2.20;;;;;;;27.44;47.02;101495.22;6224799;28;20457;-76
2022/07/24 12:00:20;;;;;;;2.72;2.08;;;;;;;28.05;45.43;101500.88;6224001;28;20046;-75
2022/07/24 12:03:25;;;;;;;4.10;2.20;;;;;;;28.35;43.88;101496.50;6225661;28;20061;-77
2022/07/24 12:06:28;;;;;;;2.88;1.58;;;;;;;28.60;43.00;101483.59;6225266;28;20056;-77
2022/07/24 12:09:29;;;;;;;2.38;1.60;;;;;;;28.95;40.22;101479.41;6225219;28;20137;-77
2022/07/24 12:12:32;;;;;;;4.53;2.20;;;;;;;29.18;40.59;101478.50;6225008;28;20061;-76
2022/07/24 12:15:39;;;;;;;2.22;1.88;;;;;;;29.54;40.66;101470.47;6229982;28;20045;-78
2022/07/24 12:18:42;;;;;;;2.95;1.90;;;;;;;29.70;39.98;101472.97;6217529;28;20060;-77
2022/07/24 12:21:45;;;;;;;2.55;1.75;;;;;;;29.32;40.68;101459.53;6225524;28;20050;-77
2022/07/24 12:24:46;;;;;;;2.33;2.00;;;;;;;29.50;40.04;101456.44;6241101;28;20416;-77
2022/07/24 12:27:48;;;;;;;2.60;1.63;;;;;;;29.85;40.53;101455.88;6249016;28;20056;-76
2022/07/24 12:30:51;;;;;;;3.08;1.83;;;;;;;30.07;38.49;101455.69;6208669;28;20056;-76
2022/07/24 12:33:55;;;;;;;2.85;1.60;;;;;;;30.32;39.83;101448.03;6199847;28;20402;-77
2022/07/24 12:36:57;;;;;;;1.85;1.55;;;;;;;30.29;38.11;101440.25;6221179;28;20527;-77
2022/07/24 12:39:59;;;;;;;2.97;1.88;;;;;;;30.28;39.75;101438.59;6243169;28;20065;-77
2022/07/24 12:43:03;;;;;;;3.03;2.13;;;;;;;30.05;37.24;101438.75;6248994;28;20046;-76
2022/07/24 12:46:06;;;;;;;2.40;1.83;;;;;;;30.25;38.44;101449.84;6248734;28;20046;-76
2022/07/24 12:49:10;;;;;;;2.40;2.05;;;;;;;30.30;36.78;101427.56;6249119;28;20132;-77
2022/07/24 12:52:20;;;;;;;2.33;1.60;;;;;;;30.40;37.01;101425.34;6248412;28;20045;-77
2022/07/24 12:55:22;;;;;;;2.85;1.63;;;;;;;30.56;38.05;101422.34;6248716;28;20493;-76
2022/07/24 12:58:23;;;;;;;3.03;1.58;;;;;;;30.49;38.12;101418.75;6235283;28;20129;-77
2022/07/24 13:01:27;;;;;;;1.85;1.70;;;;;;;30.68;36.81;101421.81;6199685;28;20046;-77
2022/07/24 13:04:30;;;;;;;2.75;1.58;;;;;;;30.86;37.24;101418.63;6199374;28;20050;-77
2022/07/24 13:07:31;;;;;;;2.75;1.73;;;;;;;30.90;36.82;101415.31;6198186;28;20490;-77
2022/07/24 13:10:33;;;;;;;1.63;1.45;;;;;;;30.88;36.35;101416.53;6199600;28;20132;-77
2022/07/24 13:13:34;;;;;;;4.55;1.45;;;;;;;30.93;35.89;101406.78;6199115;28;20054;-77
2022/07/24 13:16:37;;;;;;;2.45;1.73;;;;;;;31.07;36.99;101422.09;6199425;28;20061;-78
2022/07/24 13:19:42;;;;;;;4.32;2.03;;;;;;;31.19;36.40;101413.38;6200704;28;20061;-74
2022/07/24 13:22:43;;;;;;;3.67;1.83;;;;;;;31.00;36.23;101407.63;6198936;28;20442;-76
2022/07/24 13:25:47;;;;;;;3.17;2.00;;;;;;;31.00;36.38;101412.25;6198696;28;20043;-75
2022/07/24 13:28:49;;;;;;;2.00;1.80;;;;;;;30.99;36.84;101411.41;6200347;28;20054;-77
2022/07/24 13:31:51;;;;;;;2.30;1.65;;;;;;;31.26;38.00;101411.53;6198748;28;20050;-77
2022/07/24 13:34:53;;;;;;;2.72;2.03;;;;;;;31.44;35.39;101408.31;6198912;28;20042;-77
2022/07/24 13:37:55;;;;;;;2.17;1.85;;;;;;;31.25;35.42;101398.97;6198541;28;20418;-76
2022/07/24 13:40:56;;;;;;;2.70;1.63;;;;;;;31.28;35.30;101396.72;6205506;28;20430;-76
2022/07/24 13:43:58;;;;;;;2.95;1.90;;;;;;;31.39;36.38;101384.47;6236306;28;20045;-77
2022/07/24 13:46:59;;;;;;;3.13;1.58;;;;;;;31.52;36.64;101370.06;6242597;28;20050;-75
2022/07/24 13:50:02;;;;;;;2.65;1.92;;;;;;;31.64;37.25;101373.88;6247513;28;20049;-77
2022/07/24 13:53:04;;;;;;;4.00;1.90;;;;;;;31.84;36.06;101354.94;6247579;28;20053;-77
2022/07/24 13:56:06;;;;;;;3.08;1.98;;;;;;;31.88;36.25;101356.16;6245916;28;20413;-77
2022/07/24 13:59:08;;;;;;;2.28;1.65;;;;;;;31.82;34.99;101356.97;6199259;28;20056;-77
2022/07/24 14:02:09;;;;;;;2.15;1.73;;;;;;;31.85;34.73;101351.16;6198148;28;20053;-77
2022/07/24 14:05:12;;;;;;;2.80;1.73;;;;;;;31.73;35.64;101345.44;6197827;28;20057;-77
2022/07/24 14:08:13;;;;;;;2.42;1.77;;;;;;;31.64;35.49;101346.69;6207639;28;20062;-77